createdAt,value
2019-05-29T00:01:28.107Z,9.95
2019-05-29T00:03:59.755Z,10.21
2019-05-29T00:06:31.068Z,10.36
2019-05-29T00:09:02.356Z,10.24
2019-05-29T00:11:34.121Z,10.09
2019-05-29T00:14:19.734Z,9.87
2019-05-29T00:16:41.664Z,9.98
2019-05-29T00:19:13.080Z,9.69
2019-05-29T00:21:44.851Z,9.82
2019-05-29T00:24:16.099Z,9.86
2019-05-29T00:26:47.393Z,10.14
2019-05-29T00:29:18.722Z,10.18
2019-05-29T00:31:50.696Z,10.26
2019-05-29T00:34:23.298Z,10.33
2019-05-29T00:36:55.861Z,10.22
2019-05-29T00:39:28.110Z,10.05
2019-05-29T00:41:59.348Z,10.15
2019-05-29T00:44:34.483Z,10.05
2019-05-29T00:47:03.952Z,10.00
2019-05-29T00:49:35.212Z,9.82
2019-05-29T00:52:06.426Z,9.84
2019-05-29T00:54:37.674Z,9.90
2019-05-29T00:57:08.873Z,9.85
2019-05-29T00:59:40.523Z,9.89
2019-05-29T01:02:13.732Z,9.88
2019-05-29T01:04:45.543Z,9.72
2019-05-29T01:07:16.761Z,9.82
2019-05-29T01:09:47.989Z,9.81
2019-05-29T01:12:19.269Z,9.79
2019-05-29T01:14:50.819Z,9.81
2019-05-29T01:17:22.108Z,9.73
2019-05-29T01:19:53.253Z,9.88
2019-05-29T01:22:24.584Z,9.99
2019-05-29T01:24:58.887Z,10.03
2019-05-29T01:27:30.176Z,9.85
2019-05-29T01:30:01.738Z,9.77
2019-05-29T01:32:32.983Z,9.70
2019-05-29T01:35:05.343Z,9.62
2019-05-29T01:37:36.705Z,9.61
2019-05-29T01:40:19.285Z,9.48
2019-05-29T01:42:41.669Z,9.17
2019-05-29T01:45:13.230Z,9.14
2019-05-29T01:47:44.470Z,9.43
2019-05-29T01:50:17.729Z,9.28
2019-05-29T01:52:49.111Z,9.26
2019-05-29T01:55:20.322Z,9.23
2019-05-29T01:57:51.898Z,9.25
2019-05-29T02:00:24.653Z,9.05
2019-05-29T02:02:55.944Z,9.26
2019-05-29T02:05:28.276Z,9.37
2019-05-29T02:07:59.725Z,9.08
2019-05-29T02:10:31.149Z,9.11
2019-05-29T02:13:02.442Z,9.08
2019-05-29T02:15:35.992Z,9.32
2019-05-29T02:18:07.203Z,9.23
2019-05-29T02:20:38.622Z,8.88
2019-05-29T02:23:10.150Z,8.91
2019-05-29T02:25:41.490Z,8.90
2019-05-29T02:28:13.116Z,8.84
2019-05-29T02:30:44.344Z,8.87
2019-05-29T02:33:15.590Z,9.06
2019-05-29T02:35:46.846Z,9.39
2019-05-29T02:38:18.501Z,9.50
2019-05-29T02:40:50.805Z,9.50
2019-05-29T02:43:23.521Z,9.41
2019-05-29T02:45:55.961Z,9.29
2019-05-29T02:48:28.063Z,9.07
2019-05-29T02:51:00.187Z,9.15
2019-05-29T02:53:31.328Z,8.94
2019-05-29T02:56:02.838Z,8.87
2019-05-29T02:58:34.039Z,8.88
2019-05-29T03:01:07.537Z,9.06
2019-05-29T03:03:40.118Z,8.94
2019-05-29T03:06:11.889Z,9.07
2019-05-29T03:08:43.546Z,9.12
2019-05-29T03:11:14.928Z,8.73
2019-05-29T03:13:46.165Z,8.80
2019-05-29T03:16:17.488Z,8.93
2019-05-29T03:18:48.668Z,9.09
2019-05-29T03:21:21.788Z,8.76
2019-05-29T03:23:53.025Z,8.95
2019-05-29T03:26:26.541Z,8.89
2019-05-29T03:28:57.032Z,8.88
2019-05-29T03:31:36.979Z,8.78
2019-05-29T03:34:03.103Z,8.88
2019-05-29T03:36:43.550Z,8.67
2019-05-29T03:39:10.972Z,8.71
2019-05-29T03:41:44.479Z,8.80
2019-05-29T03:44:15.658Z,8.76
2019-05-29T03:46:46.992Z,8.79
2019-05-29T03:49:18.674Z,8.53
2019-05-29T03:51:50.074Z,8.68
2019-05-29T03:54:21.668Z,8.91
2019-05-29T03:56:54.658Z,8.92
2019-05-29T03:59:26.738Z,9.03
2019-05-29T04:01:58.654Z,8.98
2019-05-29T04:04:31.334Z,9.06
2019-05-29T04:07:03.081Z,9.24
2019-05-29T04:09:35.392Z,9.57
2019-05-29T04:12:06.704Z,9.53
2019-05-29T04:14:38.083Z,9.79
2019-05-29T04:17:12.598Z,9.63
2019-05-29T04:19:44.821Z,9.82
2019-05-29T04:22:19.445Z,9.80
2019-05-29T04:24:54.769Z,9.47
2019-05-29T04:27:29.929Z,9.69
2019-05-29T04:30:03.647Z,9.90
2019-05-29T04:32:36.618Z,9.95
2019-05-29T04:35:08.688Z,9.90
2019-05-29T04:37:40.250Z,9.79
2019-05-29T04:40:11.963Z,9.82
2019-05-29T04:42:43.110Z,9.93
2019-05-29T04:45:14.479Z,9.84
2019-05-29T04:47:46.065Z,9.92
2019-05-29T04:50:17.528Z,10.00
2019-05-29T04:52:48.715Z,10.07
2019-05-29T04:55:26.000Z,10.09
2019-05-29T04:57:57.755Z,10.22
2019-05-29T05:00:29.113Z,10.12
2019-05-29T05:03:00.990Z,10.24
2019-05-29T05:05:35.379Z,10.23
2019-05-29T05:08:06.790Z,10.26
2019-05-29T05:10:41.002Z,10.21
2019-05-29T05:13:12.519Z,10.25
2019-05-29T05:15:46.265Z,10.06
2019-05-29T05:18:18.362Z,10.24
2019-05-29T05:20:49.684Z,10.08
2019-05-29T05:23:21.455Z,10.21
2019-05-29T05:25:52.689Z,10.57
2019-05-29T05:28:24.039Z,10.64
2019-05-29T05:30:55.340Z,10.74
2019-05-29T05:33:26.900Z,10.84
2019-05-29T05:35:58.894Z,10.84
2019-05-29T05:38:30.646Z,10.86
2019-05-29T05:41:01.830Z,10.71
2019-05-29T05:43:33.076Z,10.68
2019-05-29T05:46:04.531Z,10.67
2019-05-29T05:48:35.733Z,10.68
2019-05-29T05:51:07.161Z,10.83
2019-05-29T05:54:56.312Z,10.91
2019-05-29T05:57:27.810Z,11.04
2019-05-29T06:00:01.113Z,11.16
2019-05-29T06:04:03.747Z,11.25
2019-05-29T06:06:36.166Z,11.40
2019-05-29T06:09:09.208Z,11.46
2019-05-29T06:11:40.635Z,11.97
2019-05-29T06:14:12.233Z,12.63
2019-05-29T06:16:45.274Z,12.86
2019-05-29T06:19:16.593Z,12.82
2019-05-29T06:21:47.990Z,13.28
2019-05-29T06:24:19.499Z,13.32
2019-05-29T06:26:50.868Z,13.50
2019-05-29T06:29:22.138Z,13.54
2019-05-29T06:31:53.338Z,13.76
2019-05-29T06:34:24.990Z,13.58
2019-05-29T06:36:57.555Z,13.75
2019-05-29T06:39:28.846Z,14.03
2019-05-29T06:42:00.104Z,13.40
2019-05-29T06:44:31.643Z,13.91
2019-05-29T06:47:03.017Z,13.63
2019-05-29T06:49:34.353Z,14.00
2019-05-29T06:52:09.186Z,14.52
2019-05-29T06:54:42.278Z,14.34
2019-05-29T06:57:13.525Z,14.45
2019-05-29T06:59:46.295Z,14.26
2019-05-29T07:02:17.495Z,13.60
2019-05-29T07:04:48.804Z,13.53
2019-05-29T07:07:20.245Z,13.39
2019-05-29T07:09:54.053Z,13.40
2019-05-29T07:12:25.303Z,13.79
2019-05-29T07:14:58.903Z,13.78
2019-05-29T07:17:30.735Z,13.59
2019-05-29T07:20:04.001Z,13.68
2019-05-29T07:22:36.883Z,14.06
2019-05-29T07:25:08.440Z,14.06
2019-05-29T07:27:40.811Z,14.67
2019-05-29T07:30:12.512Z,14.81
2019-05-29T07:32:51.020Z,15.44
2019-05-29T07:35:19.894Z,14.78
2019-05-29T07:37:51.167Z,14.56
2019-05-29T07:40:22.439Z,14.76
2019-05-29T07:42:56.646Z,14.88
2019-05-29T07:45:27.056Z,14.42
2019-05-29T07:47:58.399Z,14.21
2019-05-29T07:50:29.807Z,14.67
2019-05-29T07:53:01.413Z,14.96
2019-05-29T07:55:35.368Z,15.17
2019-05-29T07:58:07.889Z,14.95
2019-05-29T08:01:03.759Z,14.79
2019-05-29T08:03:12.991Z,14.47
2019-05-29T08:05:47.704Z,14.19
2019-05-29T08:08:20.422Z,14.01
2019-05-29T08:10:51.854Z,13.90
2019-05-29T08:13:23.202Z,13.87
2019-05-29T08:16:02.663Z,13.82
2019-05-29T08:18:27.755Z,13.42
2019-05-29T08:21:02.761Z,13.26
2019-05-29T08:23:34.616Z,13.69
2019-05-29T08:26:06.678Z,14.10
2019-05-29T08:28:38.562Z,14.33
2019-05-29T08:31:09.795Z,14.11
2019-05-29T08:33:44.771Z,14.36
2019-05-29T08:36:17.654Z,14.55
2019-05-29T08:38:49.295Z,14.35
2019-05-29T08:41:21.089Z,14.83
2019-05-29T08:43:52.893Z,15.09
2019-05-29T08:46:24.459Z,15.16
2019-05-29T08:48:56.508Z,14.48
2019-05-29T08:51:28.251Z,14.67
2019-05-29T08:53:59.695Z,14.49
2019-05-29T08:56:31.014Z,14.41
2019-05-29T08:59:02.406Z,14.46
2019-05-29T09:01:35.048Z,14.34
2019-05-29T09:04:14.328Z,14.30
2019-05-29T09:06:47.077Z,13.96
2019-05-29T09:09:18.334Z,14.17
2019-05-29T09:11:50.194Z,14.01
2019-05-29T09:14:23.170Z,14.05
2019-05-29T09:16:54.747Z,14.07
2019-05-29T09:19:27.125Z,14.50
2019-05-29T09:21:58.467Z,15.16
2019-05-29T09:24:30.191Z,14.80
2019-05-29T09:27:01.573Z,14.79
2019-05-29T09:29:32.878Z,14.74
2019-05-29T09:32:05.901Z,15.12
2019-05-29T09:34:37.220Z,15.42
2019-05-29T09:37:08.690Z,15.79
2019-05-29T09:39:44.861Z,15.23
2019-05-29T09:42:18.496Z,15.34
2019-05-29T09:44:52.212Z,15.75
2019-05-29T09:47:24.299Z,15.60
2019-05-29T09:49:55.763Z,14.94
2019-05-29T09:52:30.692Z,14.63
2019-05-29T09:55:00.456Z,14.40
2019-05-29T09:57:32.096Z,14.39
2019-05-29T10:00:04.165Z,14.62
2019-05-29T10:02:43.591Z,14.64
2019-05-29T10:05:12.319Z,14.76
2019-05-29T10:07:44.189Z,15.12
2019-05-29T10:10:17.442Z,15.03
2019-05-29T10:12:51.172Z,14.80
2019-05-29T10:15:24.162Z,14.70
2019-05-29T10:17:56.876Z,14.74
2019-05-29T10:20:32.399Z,15.23
2019-05-29T10:23:05.091Z,15.43
2019-05-29T10:25:37.030Z,15.35
2019-05-29T10:28:08.565Z,15.31
2019-05-29T10:30:40.068Z,14.82
2019-05-29T10:33:11.313Z,14.85
2019-05-29T10:35:42.714Z,14.81
2019-05-29T10:38:14.153Z,14.80
2019-05-29T10:40:55.137Z,15.06
2019-05-29T10:43:33.024Z,14.92
2019-05-29T10:45:52.208Z,14.88
2019-05-29T10:48:25.739Z,14.57
2019-05-29T10:51:01.747Z,14.54
2019-05-29T10:53:33.004Z,14.78
2019-05-29T10:56:04.471Z,15.15
2019-05-29T10:58:50.605Z,15.60
2019-05-29T11:01:17.496Z,15.74
2019-05-29T11:03:49.346Z,15.63
2019-05-29T11:06:23.178Z,15.50
2019-05-29T11:08:58.137Z,15.25
2019-05-29T11:11:29.825Z,15.39
2019-05-29T11:14:01.245Z,15.38
2019-05-29T11:16:32.840Z,15.18
2019-05-29T11:19:04.600Z,14.94
2019-05-29T11:21:35.918Z,14.86
2019-05-29T11:24:07.501Z,15.00
2019-05-29T11:26:40.476Z,14.82
2019-05-29T11:29:12.527Z,15.19
2019-05-29T11:31:44.386Z,15.34
2019-05-29T11:34:17.542Z,15.52
2019-05-29T11:36:51.999Z,15.77
2019-05-29T11:39:25.012Z,16.07
2019-05-29T11:41:56.852Z,15.68
2019-05-29T11:44:28.228Z,15.51
2019-05-29T11:46:59.528Z,15.33
2019-05-29T11:49:31.034Z,15.53
2019-05-29T11:52:22.913Z,15.77
2019-05-29T11:54:35.542Z,15.85
2019-05-29T11:57:06.879Z,15.82
2019-05-29T11:59:38.846Z,16.03
2019-05-29T12:02:10.404Z,15.73
2019-05-29T12:04:46.083Z,15.43
2019-05-29T12:07:17.613Z,15.18
2019-05-29T12:09:49.301Z,15.19
2019-05-29T12:12:20.939Z,15.35
2019-05-29T12:15:04.983Z,15.38
2019-05-29T12:17:29.071Z,15.24
2019-05-29T12:20:02.519Z,15.49
2019-05-29T12:22:34.001Z,15.41
2019-05-29T12:25:06.453Z,15.84
2019-05-29T12:27:37.797Z,16.03
2019-05-29T12:30:11.748Z,15.54
2019-05-29T12:32:45.453Z,15.56
2019-05-29T12:35:16.961Z,15.51
2019-05-29T12:37:48.967Z,15.72
2019-05-29T12:40:20.480Z,15.80
2019-05-29T12:43:03.654Z,16.16
2019-05-29T12:45:35.352Z,16.21
2019-05-29T12:48:13.064Z,16.23
2019-05-29T12:50:39.773Z,15.82
2019-05-29T12:53:29.786Z,15.98
2019-05-29T12:55:48.822Z,16.18
2019-05-29T12:58:20.250Z,16.55
2019-05-29T13:00:52.319Z,16.21
2019-05-29T13:03:23.734Z,16.64
2019-05-29T13:05:56.051Z,16.85
2019-05-29T13:08:27.727Z,16.63
2019-05-29T13:11:00.247Z,16.31
2019-05-29T13:13:31.944Z,15.98
2019-05-29T13:16:03.275Z,15.86
2019-05-29T13:18:40.903Z,16.26
2019-05-29T13:21:13.424Z,15.85
2019-05-29T13:23:45.838Z,16.12
2019-05-29T13:26:17.402Z,16.25
2019-05-29T13:28:48.751Z,16.21
2019-05-29T13:31:20.482Z,15.75
2019-05-29T13:33:51.808Z,15.97
2019-05-29T13:36:23.256Z,16.27
2019-05-29T13:38:55.884Z,16.60
2019-05-29T13:41:28.619Z,16.57
2019-05-29T13:44:00.517Z,16.89
2019-05-29T13:46:32.366Z,16.48
2019-05-29T13:49:07.201Z,16.18
2019-05-29T13:51:38.663Z,15.82
2019-05-29T13:54:16.950Z,15.62
2019-05-29T13:56:43.818Z,15.88
2019-05-29T13:59:15.347Z,16.21
2019-05-29T14:01:49.065Z,16.13
2019-05-29T14:04:38.318Z,15.98
2019-05-29T14:07:09.737Z,15.88
2019-05-29T14:09:41.663Z,15.78
2019-05-29T14:12:13.250Z,16.35
2019-05-29T14:14:45.281Z,16.67
2019-05-29T14:17:16.668Z,16.85
2019-05-29T14:19:48.761Z,16.68
2019-05-29T14:22:20.284Z,16.33
2019-05-29T14:24:52.087Z,16.51
2019-05-29T14:27:23.519Z,16.66
2019-05-29T14:29:55.160Z,16.59
2019-05-29T14:32:28.552Z,16.12
2019-05-29T14:35:00.311Z,16.15
2019-05-29T14:37:33.073Z,16.24
2019-05-29T14:40:05.689Z,16.71
2019-05-29T14:42:37.343Z,17.02
2019-05-29T14:45:10.375Z,16.98
2019-05-29T14:47:42.410Z,16.81
2019-05-29T14:50:14.116Z,16.73
2019-05-29T14:52:45.315Z,16.82
2019-05-29T14:55:18.398Z,16.29
2019-05-29T14:57:52.364Z,16.36
2019-05-29T15:00:25.658Z,16.66
2019-05-29T15:02:57.784Z,16.32
2019-05-29T15:05:29.432Z,16.61
2019-05-29T15:08:00.931Z,16.44
2019-05-29T15:10:33.304Z,16.24
2019-05-29T15:13:06.523Z,16.35
2019-05-29T15:15:38.044Z,16.54
2019-05-29T15:18:13.689Z,16.41
2019-05-29T15:20:42.617Z,16.11
2019-05-29T15:23:18.643Z,16.37
2019-05-29T15:25:48.848Z,16.22
2019-05-29T15:28:20.963Z,16.12
2019-05-29T15:30:52.441Z,16.21
2019-05-29T15:33:25.874Z,16.51
2019-05-29T15:35:57.276Z,16.50
2019-05-29T15:38:29.146Z,16.04
2019-05-29T15:41:00.582Z,16.13
2019-05-29T15:43:32.991Z,16.39
2019-05-29T15:46:05.044Z,16.36
2019-05-29T15:48:36.685Z,16.26
2019-05-29T15:51:08.828Z,16.23
2019-05-29T15:53:40.399Z,16.57
2019-05-29T15:56:26.888Z,16.59
2019-05-29T15:58:50.850Z,16.72
2019-05-29T16:01:22.279Z,16.68
2019-05-29T16:03:53.924Z,16.63
2019-05-29T16:06:25.610Z,16.29
2019-05-29T16:08:58.924Z,16.50
2019-05-29T16:11:30.191Z,16.72
2019-05-29T16:14:01.531Z,16.50
2019-05-29T16:16:36.176Z,16.38
2019-05-29T16:19:08.006Z,16.31
2019-05-29T16:21:40.466Z,16.39
2019-05-29T16:24:19.044Z,16.24
2019-05-29T16:27:07.969Z,16.40
2019-05-29T16:29:53.524Z,16.54
2019-05-29T16:33:01.067Z,16.47
2019-05-29T16:36:03.436Z,16.29
2019-05-29T16:38:49.590Z,16.25
2019-05-29T16:42:32.579Z,16.18
2019-05-29T16:44:32.730Z,15.83
2019-05-29T16:47:04.218Z,16.20
2019-05-29T16:49:35.445Z,16.13
2019-05-29T16:52:06.935Z,16.03
2019-05-29T16:54:38.495Z,15.98
2019-05-29T16:57:10.569Z,15.97
2019-05-29T17:02:32.291Z,15.99
2019-05-29T17:05:03.982Z,16.16
2019-05-29T17:07:35.948Z,15.97
2019-05-29T17:10:07.779Z,15.69
2019-05-29T17:12:39.185Z,15.71
2019-05-29T17:15:11.788Z,15.92
2019-05-29T17:17:43.105Z,15.89
2019-05-29T17:20:16.468Z,15.80
2019-05-29T17:22:48.006Z,15.84
2019-05-29T17:25:20.660Z,15.95
2019-05-29T17:27:52.975Z,15.86
2019-05-29T17:30:30.875Z,15.82
2019-05-29T17:33:02.258Z,15.53
2019-05-29T17:35:33.792Z,15.74
2019-05-29T17:38:05.198Z,15.64
2019-05-29T17:40:36.617Z,15.62
2019-05-29T17:43:24.482Z,15.52
2019-05-29T17:45:57.582Z,15.58
2019-05-29T17:48:29.018Z,15.57
2019-05-29T17:51:01.934Z,15.52
2019-05-29T17:53:34.477Z,15.97
2019-05-29T17:56:08.888Z,16.28
2019-05-29T18:01:11.975Z,16.19
2019-05-29T18:03:43.601Z,16.12
2019-05-29T18:06:16.209Z,16.06
2019-05-29T18:08:47.793Z,15.99
2019-05-29T18:11:19.039Z,16.09
2019-05-29T18:13:50.360Z,15.88
2019-05-29T18:16:21.835Z,15.70
2019-05-29T18:18:53.393Z,15.52
2019-05-29T18:21:25.771Z,15.67
2019-05-29T18:23:57.374Z,15.71
2019-05-29T18:26:45.975Z,15.67
2019-05-29T18:29:02.048Z,15.63
2019-05-29T18:31:33.947Z,15.68
2019-05-29T18:34:05.272Z,15.92
2019-05-29T18:36:36.653Z,15.79
2019-05-29T18:39:09.566Z,15.48
2019-05-29T18:41:42.222Z,15.71
2019-05-29T18:44:13.647Z,15.85
2019-05-29T18:46:45.027Z,15.64
2019-05-29T18:49:18.416Z,15.72
2019-05-29T18:51:49.849Z,15.50
2019-05-29T18:54:21.661Z,15.57
2019-05-29T18:57:13.897Z,15.59
2019-05-29T18:59:27.490Z,15.50
2019-05-29T19:02:01.250Z,15.53
2019-05-29T19:04:32.759Z,15.48
2019-05-29T19:07:04.138Z,15.31
2019-05-29T19:09:35.935Z,15.28
2019-05-29T19:12:07.461Z,15.21
2019-05-29T19:14:39.119Z,15.18
2019-05-29T19:17:10.544Z,15.28
2019-05-29T19:19:42.209Z,15.34
2019-05-29T19:22:13.732Z,15.29
2019-05-29T19:24:47.065Z,15.25
2019-05-29T19:27:30.956Z,15.05
2019-05-29T19:29:55.005Z,15.01
2019-05-29T19:32:27.249Z,14.86
2019-05-29T19:35:01.215Z,15.09
2019-05-29T19:37:34.192Z,15.04
2019-05-29T19:40:06.010Z,14.75
2019-05-29T19:42:37.435Z,14.83
2019-05-29T19:45:09.154Z,14.66
2019-05-29T19:47:40.515Z,14.54
2019-05-29T19:50:12.512Z,14.52
2019-05-29T19:52:45.144Z,14.48
2019-05-29T19:55:18.810Z,14.46
2019-05-29T19:57:55.687Z,14.44
2019-05-29T20:00:23.909Z,14.36
2019-05-29T20:02:55.853Z,14.30
2019-05-29T20:05:27.191Z,14.30
2019-05-29T20:08:00.154Z,14.28
2019-05-29T20:10:31.453Z,14.19
2019-05-29T20:13:02.914Z,14.18
2019-05-29T20:15:34.463Z,14.39
2019-05-29T20:18:09.083Z,14.66
2019-05-29T20:20:41.119Z,14.80
2019-05-29T20:23:13.142Z,14.86
2019-05-29T20:25:44.460Z,14.58
2019-05-29T20:28:15.943Z,14.15
2019-05-29T20:30:47.433Z,14.06
2019-05-29T20:33:21.167Z,13.98
2019-05-29T20:35:52.383Z,13.87
2019-05-29T20:38:23.652Z,13.85
2019-05-29T20:40:55.042Z,13.66
2019-05-29T20:43:26.730Z,13.58
2019-05-29T20:45:58.526Z,13.53
2019-05-29T20:48:30.547Z,13.55
2019-05-29T20:51:03.388Z,13.52
2019-05-29T20:53:35.323Z,13.57
2019-05-29T20:56:07.333Z,13.51
2019-05-29T20:58:40.466Z,13.54
2019-05-29T21:01:11.803Z,13.56
2019-05-29T21:03:43.086Z,13.69
2019-05-29T21:06:14.368Z,13.87
2019-05-29T21:08:48.403Z,13.99
2019-05-29T21:11:19.730Z,14.06
2019-05-29T21:13:50.942Z,14.12
2019-05-29T21:16:22.282Z,14.17
2019-05-29T21:18:53.989Z,14.15
2019-05-29T21:21:25.219Z,14.03
2019-05-29T21:23:56.472Z,14.08
2019-05-29T21:26:27.924Z,14.10
2019-05-29T21:28:59.247Z,14.12
2019-05-29T21:31:30.380Z,14.10
2019-05-29T21:34:01.755Z,14.03
2019-05-29T21:36:33.130Z,14.06
2019-05-29T21:39:05.971Z,14.02
2019-05-29T21:41:38.372Z,14.02
2019-05-29T21:44:10.711Z,13.90
2019-05-29T21:46:43.143Z,13.74
2019-05-29T21:49:14.437Z,13.75
2019-05-29T21:51:45.857Z,13.69
2019-05-29T21:54:17.296Z,13.69
2019-05-29T21:56:48.633Z,13.38
2019-05-29T21:59:19.922Z,13.26
2019-05-29T22:01:51.237Z,13.38
2019-05-29T22:04:22.484Z,13.45
2019-05-29T22:06:53.720Z,13.54
2019-05-29T22:09:25.081Z,13.56
2019-05-29T22:11:56.629Z,13.61
2019-05-29T22:14:28.158Z,13.45
2019-05-29T22:16:59.467Z,13.50
2019-05-29T22:19:31.021Z,13.56
2019-05-29T22:22:02.622Z,13.52
2019-05-29T22:24:34.534Z,13.48
2019-05-29T22:27:06.236Z,13.46
2019-05-29T22:29:37.498Z,13.48
2019-05-29T22:32:08.924Z,13.42
2019-05-29T22:34:40.306Z,13.47
2019-05-29T22:37:12.473Z,13.46
2019-05-29T22:39:43.757Z,13.49
2019-05-29T22:42:15.104Z,13.53
2019-05-29T22:44:46.741Z,13.51
2019-05-29T22:47:57.783Z,13.52
2019-05-29T22:50:34.367Z,13.42
2019-05-29T22:53:07.847Z,13.38
2019-05-29T22:55:39.628Z,13.42
2019-05-29T22:58:11.325Z,13.35
2019-05-29T23:00:42.664Z,13.39
2019-05-29T23:03:14.329Z,13.46
2019-05-29T23:05:46.011Z,13.41
2019-05-29T23:08:17.411Z,13.34
2019-05-29T23:10:48.849Z,13.31
2019-05-29T23:13:21.283Z,13.19
2019-05-29T23:15:52.497Z,13.16
2019-05-29T23:18:23.718Z,13.21
2019-05-29T23:20:55.026Z,13.16
2019-05-29T23:23:26.403Z,13.16
2019-05-29T23:25:58.609Z,13.14
2019-05-29T23:28:29.924Z,12.99
2019-05-29T23:31:06.290Z,12.94
2019-05-29T23:33:38.014Z,13.00
2019-05-29T23:36:11.360Z,12.95
2019-05-29T23:38:42.654Z,12.92
2019-05-29T23:41:14.101Z,12.91
2019-05-29T23:43:45.600Z,12.94
2019-05-29T23:46:18.587Z,12.91
2019-05-29T23:48:50.287Z,12.89
2019-05-29T23:51:21.690Z,12.81
2019-05-29T23:53:53.598Z,12.75
2019-05-29T23:56:24.979Z,12.87
2019-05-29T23:58:56.323Z,12.95
